EDT,Max TemperatureF,Mean TemperatureF,Min TemperatureF,Max Dew PointF,MeanDew PointF,Min DewpointF,Max Humidity, Mean Humidity, Min Humidity, Max Sea Level PressureIn, Mean Sea Level PressureIn, Min Sea Level PressureIn, Max VisibilityMiles, Mean VisibilityMiles, Min VisibilityMiles, Max Wind SpeedMPH, Mean Wind SpeedMPH, Max Gust SpeedMPH,PrecipitationIn, CloudCover, Events, WindDirDegrees
2012-10-1,58,53,49,51,49,48,93,80,72,29.74,29.60,29.52,,,,6,4,,0.27,,,-1
2012-10-2,69,59,49,53,48,43,98,66,39,30.02,29.90,29.75,,,,8,4,15,0.24,,,240
2012-10-3,67,54,41,52,48,43,85,61,42,30.22,30.15,30.03,,,,5,2,,0.01,,,-1
2012-10-4,59,48,37,51,47,44,88,73,60,30.25,30.15,29.98,,,,6,1,14,0.42,,,-1
2012-10-5,65,58,51,58,55,53,99,77,67,29.98,29.88,29.80,,,,10,3,20,0.00,,,196
2012-10-6,61,52,44,57,54,52,91,85,81,29.80,29.71,29.61,,,,12,6,22,0.27,,,191
2012-10-7,49,42,36,43,38,34,100,81,60,30.04,29.96,29.78,,,,12,4,17,0.48,,,200
2012-10-8,47,39,32,34,28,24,86,59,42,30.37,30.18,30.03,,,,7,2,17,0.82,,,250
2012-10-9,54,42,31,34,28,22,90,58,30,30.44,30.33,30.19,,,,10,2,18,0.05,,,158
2012-10-10,57,44,33,42,39,33,81,63,52,30.18,29.95,29.62,,,,13,3,21,0.81,,,143
2012-10-11,45,38,30,37,29,24,95,69,48,29.99,29.80,29.59,,,,12,5,29,0.09,,,240
2012-10-12,40,34,29,37,29,23,89,77,55,30.22,30.00,29.82,,,,17,7,24,0.33,,,197
2012-10-13,40,32,26,26,23,18,87,70,43,30.32,30.28,30.23,,,,9,3,23,0.26,,,246
2012-10-14,39,34,30,40,33,26,100,91,83,30.25,30.11,29.95,,,,7,2,17,0.44,,,200
2012-10-15,60,48,37,55,52,50,94,87,78,29.92,29.69,29.57,,,,12,5,18,0.16,,,164
2012-10-16,50,43,35,48,36,29,99,78,67,29.71,29.58,29.50,,,,9,3,25,0.32,,,235
2012-10-17,53,41,30,34,28,22,91,67,34,30.01,29.90,29.74,,,,8,4,16,0.03,,,240
2012-10-18,60,46,32,40,36,29,88,60,41,30.15,30.09,30.01,,,,7,2,15,0.02,,,-1
2012-10-19,57,46,37,52,45,36,100,79,64,30.16,30.08,29.86,,,,10,5,23,0.28,,,114
2012-10-20,63,58,52,,,,,,,29.83,29.68,29.56,,,,8,5,16,0.28,,,100
2012-10-21,52,48,43,47,42,41,100,83,73,29.69,29.66,29.61,,,,15,5,25,0.11,,,204
2012-10-22,53,46,39,41,36,29,84,68,51,29.88,29.73,29.63,,,,10,6,26,0.46,,,254
2012-10-23,49,40,29,31,29,26,90,69,45,30.13,30.03,29.89,,,,8,3,17,0.18,,,270
2012-10-24,49,39,27,29,25,16,90,62,28,30.28,30.19,30.13,,,,7,1,18,0.12,,,300
2012-10-25,52,39,26,32,26,16,98,64,25,30.39,30.31,30.26,,,,4,1,,0.07,,,-1
2012-10-26,68,51,36,48,39,30,100,68,43,30.25,30.17,30.09,,,,8,1,,0.20,,,170
2012-10-27,61,48,35,52,48,39,91,78,60,30.17,30.12,30.08,,,,5,1,,0.10,,,-1
2012-10-28,52,43,35,46,41,34,100,83,62,30.19,30.14,30.08,,,,7,3,,0.37,,,90
2012-10-29,56,51,46,52,51,51,88,85,82,30.06,29.96,29.87,,,,12,6,24,0.58,,,65
2012-10-30,59,55,51,60,60,60,100,100,100,29.86,29.81,29.73,,,,13,10,28,0.43,,,65
2012-10-31,62,58,53,57,54,50,89,85,81,29.71,29.57,29.46,,,,12,7,21,0.43,,,86